createdAt,value
2023-04-04T00:00:31.141Z,19.20
2023-04-04T00:02:57.981Z,19.20
2023-04-04T00:05:24.789Z,19.20
2023-04-04T00:07:51.577Z,19.20
2023-04-04T00:10:18.312Z,19.20
2023-04-04T00:12:45.151Z,19.20
2023-04-04T00:15:13.271Z,19.20
2023-04-04T00:17:40.581Z,19.30
2023-04-04T00:20:07.798Z,19.20
2023-04-04T00:22:34.689Z,19.20
2023-04-04T00:25:01.466Z,19.30
2023-04-04T00:27:28.790Z,19.30
2023-04-04T00:29:55.911Z,19.30
2023-04-04T00:32:23.286Z,19.30
2023-04-04T00:34:54.080Z,19.20
2023-04-04T00:37:21.625Z,19.30
2023-04-04T00:39:49.904Z,19.20
2023-04-04T00:42:17.974Z,19.20
2023-04-04T00:44:44.907Z,19.20
2023-04-04T00:47:11.770Z,19.20
2023-04-04T00:49:38.512Z,19.20
2023-04-04T00:52:07.749Z,19.20
2023-04-04T00:54:35.560Z,19.10
2023-04-04T00:57:04.285Z,19.10
2023-04-04T00:59:32.086Z,19.10
2023-04-04T01:02:00.705Z,19.10
2023-04-04T01:04:29.343Z,19.10
2023-04-04T01:06:56.662Z,19.10
2023-04-04T01:09:23.977Z,19.10
2023-04-04T01:11:52.284Z,19.10
2023-04-04T01:14:20.476Z,19.00
2023-04-04T01:16:50.540Z,19.00
2023-04-04T01:19:44.610Z,19.00
2023-04-04T01:22:14.174Z,18.90
2023-04-04T01:24:45.001Z,18.90
2023-04-04T01:27:11.829Z,18.90
2023-04-04T01:29:40.051Z,18.90
2023-04-04T01:32:15.421Z,18.90
2023-04-04T01:34:53.927Z,19.00
2023-04-04T01:37:38.504Z,19.10
2023-04-04T01:40:28.289Z,19.10
2023-04-04T01:42:56.099Z,19.20
2023-04-04T01:45:23.056Z,19.20
2023-04-04T01:47:50.114Z,19.30
2023-04-04T01:50:16.861Z,19.40
2023-04-04T01:52:43.928Z,19.40
2023-04-04T01:55:10.688Z,19.40
2023-04-04T01:57:37.434Z,19.40
2023-04-04T02:00:05.510Z,19.50
2023-04-04T02:02:32.453Z,19.40
2023-04-04T02:04:59.453Z,19.40
2023-04-04T02:07:26.256Z,19.40
2023-04-04T02:09:53.337Z,19.40
2023-04-04T02:12:20.246Z,19.40
2023-04-04T02:14:47.078Z,19.40
2023-04-04T02:17:13.861Z,19.40
2023-04-04T02:19:40.890Z,19.40
2023-04-04T02:22:08.388Z,19.50
2023-04-04T02:24:36.129Z,19.50
2023-04-04T02:27:04.409Z,19.50
2023-04-04T02:29:31.186Z,19.50
2023-04-04T02:31:57.921Z,19.50
2023-04-04T02:34:24.611Z,19.50
2023-04-04T02:36:51.743Z,19.50
2023-04-04T02:39:18.531Z,19.50
2023-04-04T02:41:45.530Z,19.50
2023-04-04T02:44:12.546Z,19.50
2023-04-04T02:46:39.379Z,19.40
2023-04-04T02:49:06.146Z,19.40
2023-04-04T02:51:33.537Z,19.30
2023-04-04T02:54:00.905Z,19.30
2023-04-04T02:56:27.962Z,19.40
2023-04-04T02:58:54.805Z,19.40
2023-04-04T03:01:21.677Z,19.40
2023-04-04T03:03:48.521Z,19.40
2023-04-04T03:06:15.465Z,19.40
2023-04-04T03:08:42.274Z,19.50
2023-04-04T03:11:09.118Z,19.50
2023-04-04T03:13:36.048Z,19.60
2023-04-04T03:16:06.283Z,19.60
2023-04-04T03:18:34.656Z,19.60
2023-04-04T03:21:10.373Z,19.60
2023-04-04T03:23:37.109Z,19.60
2023-04-04T03:26:03.942Z,19.60
2023-04-04T03:28:31.069Z,19.60
2023-04-04T03:30:57.827Z,19.50
2023-04-04T03:33:24.660Z,19.50
2023-04-04T03:35:51.408Z,19.50
2023-04-04T03:38:18.202Z,19.50
2023-04-04T03:40:45.447Z,19.50
2023-04-04T03:43:12.785Z,19.50
2023-04-04T03:45:39.581Z,19.50
2023-04-04T03:48:06.696Z,19.50
2023-04-04T03:50:35.524Z,19.50
2023-04-04T03:53:02.287Z,19.50
2023-04-04T03:55:29.222Z,19.50
2023-04-04T03:57:57.189Z,19.50
2023-04-04T04:00:24.154Z,19.50
2023-04-04T04:02:51.083Z,19.50
2023-04-04T04:05:17.896Z,19.50
2023-04-04T04:07:45.388Z,19.50
2023-04-04T04:10:14.232Z,19.40
2023-04-04T04:12:41.613Z,19.30
2023-04-04T04:15:09.052Z,19.30
2023-04-04T04:17:40.241Z,19.20
2023-04-04T04:20:08.609Z,19.20
2023-04-04T04:22:35.780Z,19.20
2023-04-04T04:25:02.750Z,19.20
2023-04-04T04:27:33.019Z,19.20
2023-04-04T04:29:59.850Z,19.20
2023-04-04T04:32:27.248Z,19.20
2023-04-04T04:34:54.061Z,19.20
2023-04-04T04:37:20.842Z,19.20
2023-04-04T04:39:47.620Z,19.20
2023-04-04T04:42:14.375Z,19.20
2023-04-04T04:44:41.548Z,19.20
2023-04-04T04:47:08.411Z,19.20
2023-04-04T04:49:35.637Z,19.30
2023-04-04T04:52:02.757Z,19.30
2023-04-04T04:54:29.559Z,19.30
2023-04-04T04:56:56.427Z,19.20
2023-04-04T04:59:23.468Z,19.20
2023-04-04T05:01:50.488Z,19.20
2023-04-04T05:04:17.633Z,19.20
2023-04-04T05:06:44.500Z,19.10
2023-04-04T05:09:11.320Z,19.10
2023-04-04T05:11:38.159Z,19.00
2023-04-04T05:14:06.080Z,19.00
2023-04-04T05:16:33.340Z,19.00
2023-04-04T05:19:00.143Z,19.00
2023-04-04T05:21:26.928Z,19.00
2023-04-04T05:23:53.769Z,19.10
2023-04-04T05:26:20.630Z,19.10
2023-04-04T05:28:47.888Z,19.20
2023-04-04T05:31:14.617Z,19.20
2023-04-04T05:33:41.431Z,19.30
2023-04-04T05:36:08.596Z,19.30
2023-04-04T05:38:36.102Z,19.30
2023-04-04T05:41:02.873Z,19.30
2023-04-04T05:43:29.658Z,19.30
2023-04-04T05:45:56.411Z,19.30
2023-04-04T05:48:23.218Z,19.30
2023-04-04T05:50:50.201Z,19.30
2023-04-04T05:53:17.029Z,19.30
2023-04-04T05:55:43.875Z,19.20
2023-04-04T05:58:12.468Z,19.20
2023-04-04T06:00:40.161Z,19.20
2023-04-04T06:03:07.063Z,19.20
2023-04-04T06:05:33.931Z,19.20
2023-04-04T06:08:00.897Z,19.20
2023-04-04T06:10:27.663Z,19.20
2023-04-04T06:12:54.412Z,19.30
2023-04-04T06:15:21.288Z,19.30
2023-04-04T06:17:48.225Z,19.30
2023-04-04T06:20:15.045Z,19.30
2023-04-04T06:22:41.905Z,19.40
2023-04-04T06:25:10.446Z,19.40
2023-04-04T06:27:37.622Z,19.40
2023-04-04T06:30:04.899Z,19.40
2023-04-04T06:32:32.066Z,19.40
2023-04-04T06:34:58.823Z,19.30
2023-04-04T06:37:25.773Z,19.30
2023-04-04T06:39:53.682Z,19.30
2023-04-04T06:42:20.462Z,19.30
2023-04-04T06:44:47.603Z,19.20
2023-04-04T06:47:14.916Z,19.20
2023-04-04T06:49:41.669Z,19.20
2023-04-04T06:52:08.727Z,19.20
2023-04-04T06:54:35.858Z,19.20
2023-04-04T06:57:03.000Z,19.20
2023-04-04T06:59:30.059Z,19.30
2023-04-04T07:01:57.733Z,19.30
2023-04-04T07:04:24.550Z,19.30
2023-04-04T07:06:54.652Z,19.30
2023-04-04T07:09:28.850Z,19.20
2023-04-04T07:11:56.672Z,19.20
2023-04-04T07:14:25.402Z,19.20
2023-04-04T07:16:53.109Z,19.10
2023-04-04T07:19:19.939Z,19.10
2023-04-04T07:21:46.699Z,19.10
2023-04-04T07:24:13.513Z,19.10
2023-04-04T07:26:40.866Z,19.10
2023-04-04T07:29:08.093Z,19.10
2023-04-04T07:31:34.970Z,19.10
2023-04-04T07:34:02.139Z,19.20
2023-04-04T07:36:31.546Z,19.20
2023-04-04T07:38:58.463Z,19.30
2023-04-04T07:41:25.862Z,19.30
2023-04-04T07:43:54.978Z,19.40
2023-04-04T07:46:22.298Z,19.40
2023-04-04T07:48:49.106Z,19.40
2023-04-04T07:51:16.019Z,19.40
2023-04-04T07:53:42.764Z,19.40
2023-04-04T07:56:09.517Z,19.40
2023-04-04T07:58:36.708Z,19.40
2023-04-04T08:01:03.866Z,19.30
2023-04-04T08:03:30.890Z,19.30
2023-04-04T08:05:57.957Z,19.20
2023-04-04T08:08:24.833Z,19.20
2023-04-04T08:10:51.704Z,19.20
2023-04-04T08:13:18.478Z,19.20
2023-04-04T08:15:45.473Z,19.20
2023-04-04T08:18:12.454Z,19.20
2023-04-04T08:20:39.452Z,19.20
2023-04-04T08:23:06.351Z,19.20
2023-04-04T08:25:34.887Z,19.20
2023-04-04T08:28:05.206Z,19.20
2023-04-04T08:30:34.600Z,19.30
2023-04-04T08:33:02.387Z,19.30
2023-04-04T08:35:31.127Z,19.30
2023-04-04T08:37:57.974Z,19.30
2023-04-04T08:40:24.849Z,19.30
2023-04-04T08:42:51.981Z,19.30
2023-04-04T08:45:19.411Z,19.30
2023-04-04T08:47:50.249Z,19.30
2023-04-04T08:50:17.899Z,19.30
2023-04-04T08:52:46.460Z,19.30
2023-04-04T08:55:14.051Z,19.30
2023-04-04T08:57:41.142Z,19.30
2023-04-04T09:00:09.275Z,19.30
2023-04-04T09:02:43.725Z,19.40
2023-04-04T09:05:12.614Z,19.40
2023-04-04T09:07:40.452Z,19.40
2023-04-04T09:10:11.769Z,19.40
2023-04-04T09:12:42.886Z,19.40
2023-04-04T09:15:10.570Z,19.40
2023-04-04T09:17:38.051Z,19.50
2023-04-04T09:20:37.623Z,19.50
2023-04-04T09:23:20.278Z,19.50
2023-04-04T09:28:19.715Z,19.60
2023-04-04T09:30:50.782Z,19.60
2023-04-04T09:33:18.994Z,19.70
2023-04-04T09:35:52.498Z,19.70
2023-04-04T09:38:23.215Z,19.80
2023-04-04T09:40:51.450Z,19.80
2023-04-04T09:43:19.526Z,19.80
2023-04-04T09:45:47.574Z,19.80
2023-04-04T09:48:27.255Z,19.90
2023-04-04T09:50:54.242Z,19.90
2023-04-04T09:53:21.265Z,19.80
2023-04-04T09:55:55.499Z,19.80
2023-04-04T09:58:31.930Z,19.80
2023-04-04T10:01:01.139Z,19.80
2023-04-04T10:03:30.192Z,19.80
2023-04-04T10:06:00.254Z,19.80
2023-04-04T10:08:29.389Z,19.80
2023-04-04T10:13:33.144Z,19.90
2023-04-04T10:16:00.690Z,19.90
2023-04-04T10:18:30.143Z,20.00
2023-04-04T10:21:12.264Z,20.10
2023-04-04T10:23:42.713Z,20.10
2023-04-04T10:26:09.943Z,20.10
2023-04-04T10:28:36.805Z,20.20
2023-04-04T10:31:18.601Z,20.20
2023-04-04T10:34:07.540Z,20.20
2023-04-04T10:36:49.236Z,20.20
2023-04-04T10:39:24.721Z,20.30
2023-04-04T10:41:53.033Z,20.30
2023-04-04T10:44:39.380Z,20.40
2023-04-04T10:47:23.996Z,20.40
2023-04-04T10:49:51.720Z,20.40
2023-04-04T10:52:21.121Z,20.40
2023-04-04T10:54:51.338Z,20.40
2023-04-04T10:57:18.407Z,20.40
2023-04-04T11:00:10.935Z,20.30
2023-04-04T11:02:52.964Z,20.30
2023-04-04T11:05:20.363Z,20.20
2023-04-04T11:07:57.246Z,20.20
2023-04-04T11:10:36.161Z,20.20
2023-04-04T11:13:16.224Z,20.10
2023-04-04T11:15:47.731Z,20.10
2023-04-04T11:18:31.536Z,20.00
2023-04-04T11:21:03.707Z,19.90
2023-04-04T11:23:48.821Z,19.80
2023-04-04T11:26:34.273Z,19.70
2023-04-04T11:29:08.014Z,19.70
2023-04-04T11:31:39.954Z,19.60
2023-04-04T11:34:11.289Z,19.50
2023-04-04T11:36:38.987Z,19.40
2023-04-04T11:39:28.451Z,19.30
2023-04-04T11:42:03.852Z,19.30
2023-04-04T11:44:32.653Z,19.30
2023-04-04T11:47:05.432Z,19.30
2023-04-04T11:49:37.959Z,19.30
2023-04-04T11:52:06.773Z,19.30
2023-04-04T11:54:34.335Z,19.40
2023-04-04T11:57:03.477Z,19.40
2023-04-04T11:59:30.690Z,19.50
2023-04-04T12:01:57.790Z,19.60
2023-04-04T12:04:26.137Z,19.60
2023-04-04T12:06:54.729Z,19.70
2023-04-04T12:09:25.389Z,19.80
2023-04-04T12:11:52.746Z,19.80
2023-04-04T12:14:22.056Z,19.90
2023-04-04T12:16:50.597Z,20.00
2023-04-04T12:19:18.474Z,20.10
2023-04-04T12:21:50.392Z,20.20
2023-04-04T12:24:17.874Z,20.20
2023-04-04T12:26:48.076Z,20.20
2023-04-04T12:29:17.126Z,20.10
2023-04-04T12:31:46.922Z,20.20
2023-04-04T12:34:24.907Z,20.10
2023-04-04T12:36:58.350Z,20.10
2023-04-04T12:39:29.645Z,20.10
2023-04-04T12:42:03.868Z,20.10
2023-04-04T12:44:36.089Z,20.00
2023-04-04T12:47:06.258Z,19.90
2023-04-04T12:49:43.014Z,19.80
2023-04-04T12:52:26.523Z,19.80
2023-04-04T12:55:06.949Z,19.70
2023-04-04T12:57:40.549Z,19.60
2023-04-04T13:00:09.297Z,19.50
2023-04-04T13:02:37.885Z,19.40
2023-04-04T13:05:07.228Z,19.40
2023-04-04T13:07:43.860Z,19.30
2023-04-04T13:10:15.829Z,19.20
2023-04-04T13:13:00.520Z,19.20
2023-04-04T13:15:50.612Z,19.10
2023-04-04T13:18:23.435Z,19.20
2023-04-04T13:20:51.952Z,19.20
2023-04-04T13:23:18.953Z,19.10
2023-04-04T13:25:46.520Z,19.10
2023-04-04T13:28:13.343Z,19.20
2023-04-04T13:30:43.615Z,19.20
2023-04-04T13:33:10.574Z,19.30
2023-04-04T13:35:38.409Z,19.40
2023-04-04T13:38:05.687Z,19.40
2023-04-04T13:40:32.500Z,19.50
2023-04-04T13:42:59.825Z,19.60
2023-04-04T13:45:26.668Z,19.70
2023-04-04T13:47:53.556Z,19.70
2023-04-04T13:50:22.210Z,19.80
2023-04-04T13:52:51.879Z,19.80
2023-04-04T13:55:18.785Z,20.00
2023-04-04T13:57:46.069Z,20.00
2023-04-04T14:00:13.418Z,20.10
2023-04-04T14:02:40.531Z,20.20
2023-04-04T14:05:08.114Z,20.20
2023-04-04T14:07:38.341Z,20.20
2023-04-04T14:10:05.972Z,20.20
2023-04-04T14:12:33.011Z,20.20
2023-04-04T14:14:59.764Z,20.20
2023-04-04T14:17:26.586Z,20.20
2023-04-04T14:19:53.518Z,20.20
2023-04-04T14:22:20.302Z,20.20
2023-04-04T14:24:47.188Z,20.10
2023-04-04T14:27:13.946Z,20.00
2023-04-04T14:29:41.283Z,19.90
2023-04-04T14:32:09.932Z,19.90
2023-04-04T14:34:37.147Z,19.80
2023-04-04T14:37:05.942Z,19.70
2023-04-04T14:39:33.209Z,19.70
2023-04-04T14:42:00.471Z,19.70
2023-04-04T14:44:28.258Z,19.70
2023-04-04T14:46:55.118Z,19.70
2023-04-04T14:49:22.043Z,19.60
2023-04-04T14:51:48.862Z,19.60
2023-04-04T14:54:16.185Z,19.50
2023-04-04T14:56:44.815Z,19.40
2023-04-04T14:59:11.841Z,19.30
2023-04-04T15:01:38.893Z,19.30
2023-04-04T15:04:09.158Z,19.30
2023-04-04T15:06:38.035Z,19.30
2023-04-04T15:09:08.673Z,19.30
2023-04-04T15:11:35.934Z,19.30
2023-04-04T15:14:03.043Z,19.40
2023-04-04T15:16:33.045Z,19.50
2023-04-04T15:19:01.000Z,19.60
2023-04-04T15:21:28.625Z,19.60
2023-04-04T15:23:55.957Z,19.70
2023-04-04T15:26:23.155Z,19.70
2023-04-04T15:28:49.982Z,19.80
2023-04-04T15:31:17.339Z,19.80
2023-04-04T15:33:44.259Z,19.80
2023-04-04T15:36:11.125Z,19.90
2023-04-04T15:38:39.032Z,19.90
2023-04-04T15:41:08.239Z,20.00
2023-04-04T15:43:36.819Z,20.00
2023-04-04T15:46:03.960Z,20.10
2023-04-04T15:48:30.929Z,20.10
2023-04-04T15:51:02.256Z,20.10
2023-04-04T15:53:30.776Z,20.10
2023-04-04T15:55:58.676Z,20.10
2023-04-04T15:58:26.395Z,20.10
2023-04-04T16:00:53.623Z,20.10
2023-04-04T16:03:20.711Z,20.10
2023-04-04T16:05:47.956Z,20.10
2023-04-04T16:08:14.887Z,20.10
2023-04-04T16:10:43.928Z,20.00
2023-04-04T16:13:11.534Z,19.90
2023-04-04T16:15:38.528Z,19.80
2023-04-04T16:18:05.513Z,19.80
2023-04-04T16:20:32.600Z,19.70
2023-04-04T16:22:59.334Z,19.60
2023-04-04T16:25:26.217Z,19.60
2023-04-04T16:27:53.093Z,19.50
2023-04-04T16:30:20.054Z,19.50
2023-04-04T16:32:47.703Z,19.50
2023-04-04T16:35:14.931Z,19.50
2023-04-04T16:37:41.697Z,19.60
2023-04-04T16:40:08.947Z,19.60
2023-04-04T16:42:36.511Z,19.70
2023-04-04T16:45:03.763Z,19.70
2023-04-04T16:47:31.374Z,19.80
2023-04-04T16:49:58.525Z,19.80
2023-04-04T16:52:25.568Z,19.80
2023-04-04T16:54:54.885Z,19.90
2023-04-04T16:57:21.728Z,19.90
2023-04-04T16:59:48.705Z,20.00
2023-04-04T17:02:15.471Z,20.00
2023-04-04T17:04:44.012Z,20.10
2023-04-04T17:07:10.848Z,20.20
2023-04-04T17:09:38.401Z,20.20
2023-04-04T17:12:05.721Z,20.30
2023-04-04T17:14:32.466Z,20.30
2023-04-04T17:17:00.597Z,20.40
2023-04-04T17:19:31.414Z,20.40
2023-04-04T17:21:58.995Z,20.50
2023-04-04T17:24:27.199Z,20.50
2023-04-04T17:26:56.013Z,20.50
2023-04-04T17:29:26.697Z,20.60
2023-04-04T17:31:55.120Z,20.60
2023-04-04T17:34:22.175Z,20.70
2023-04-04T17:36:49.096Z,20.70
2023-04-04T17:39:16.685Z,20.70
2023-04-04T17:41:47.442Z,20.70
2023-04-04T17:44:18.147Z,20.60
2023-04-04T17:46:46.129Z,20.70
2023-04-04T17:49:19.320Z,20.60
2023-04-04T17:51:49.899Z,20.70
2023-04-04T17:54:17.671Z,20.70
2023-04-04T17:56:45.404Z,20.70
2023-04-04T17:59:13.718Z,20.70
2023-04-04T18:01:41.396Z,20.70
2023-04-04T18:04:08.288Z,20.70
2023-04-04T18:06:35.462Z,20.70
2023-04-04T18:09:02.292Z,20.60
2023-04-04T18:11:29.776Z,20.60
2023-04-04T18:13:56.583Z,20.60
2023-04-04T18:16:23.757Z,20.60
2023-04-04T18:18:51.489Z,20.60
2023-04-04T18:21:18.425Z,20.60
2023-04-04T18:23:45.441Z,20.50
2023-04-04T18:26:13.193Z,20.50
2023-04-04T18:28:40.264Z,20.50
2023-04-04T18:31:08.255Z,20.40
2023-04-04T18:33:35.174Z,20.40
2023-04-04T18:36:03.658Z,20.30
2023-04-04T18:38:30.549Z,20.30
2023-04-04T18:40:57.416Z,20.30
2023-04-04T18:43:26.950Z,20.30
2023-04-04T18:45:55.037Z,20.30
2023-04-04T18:48:24.863Z,20.30
2023-04-04T18:50:52.201Z,20.40
2023-04-04T18:53:19.025Z,20.40
2023-04-04T18:55:48.927Z,20.40
2023-04-04T18:58:15.886Z,20.40
2023-04-04T19:00:43.037Z,20.40
2023-04-04T19:03:11.824Z,20.40
2023-04-04T19:05:41.246Z,20.30
2023-04-04T19:08:09.117Z,20.30
2023-04-04T19:10:36.226Z,20.30
2023-04-04T19:13:02.983Z,20.30
2023-04-04T19:15:30.347Z,20.30
2023-04-04T19:17:57.608Z,20.30
2023-04-04T19:20:24.388Z,20.30
2023-04-04T19:22:51.345Z,20.30
2023-04-04T19:25:18.815Z,20.20
2023-04-04T19:27:45.716Z,20.20
2023-04-04T19:30:44.577Z,20.10
2023-04-04T19:33:13.087Z,20.00
2023-04-04T19:35:55.102Z,20.00
2023-04-04T19:38:36.071Z,19.90
2023-04-04T19:41:08.207Z,19.80
2023-04-04T19:43:35.092Z,19.80
2023-04-04T19:46:10.075Z,19.80
2023-04-04T19:48:44.169Z,19.80
2023-04-04T19:51:32.900Z,19.70
2023-04-04T19:54:00.575Z,19.70
2023-04-04T19:56:28.963Z,19.60
2023-04-04T19:58:58.088Z,19.60
2023-04-04T20:01:30.016Z,19.60
2023-04-04T20:03:57.574Z,19.60
2023-04-04T20:06:32.637Z,19.60
2023-04-04T20:09:02.624Z,19.60
2023-04-04T20:11:31.908Z,19.60
2023-04-04T20:14:01.088Z,19.60
2023-04-04T20:16:29.894Z,19.60
2023-04-04T20:18:59.504Z,19.50
2023-04-04T20:21:28.383Z,19.50
2023-04-04T20:23:58.270Z,19.40
2023-04-04T20:26:46.093Z,19.40
2023-04-04T20:29:17.004Z,19.40
2023-04-04T20:31:46.956Z,19.30
2023-04-04T20:34:39.000Z,19.30
2023-04-04T20:37:11.152Z,19.40
2023-04-04T20:39:46.491Z,19.30
2023-04-04T20:42:39.980Z,19.30
2023-04-04T20:45:09.707Z,19.30
2023-04-04T20:47:46.278Z,19.30
2023-04-04T20:50:16.090Z,19.30
2023-04-04T20:52:47.415Z,19.30
2023-04-04T20:55:14.247Z,19.30
2023-04-04T20:57:41.241Z,19.30
2023-04-04T21:00:23.425Z,19.30
2023-04-04T21:02:50.384Z,19.30
2023-04-04T21:05:38.734Z,19.40
2023-04-04T21:08:34.583Z,19.30
2023-04-04T21:11:01.367Z,19.30
2023-04-04T21:13:39.446Z,19.30
2023-04-04T21:16:16.703Z,19.40
2023-04-04T21:18:44.479Z,19.30
2023-04-04T21:21:19.106Z,19.40
2023-04-04T21:23:52.631Z,19.30
2023-04-04T21:26:34.383Z,19.30
2023-04-04T21:29:11.426Z,19.30
2023-04-04T21:31:40.421Z,19.30
2023-04-04T21:34:15.564Z,19.30
2023-04-04T21:36:43.194Z,19.30
2023-04-04T21:39:24.792Z,19.30
2023-04-04T21:42:04.129Z,19.40
2023-04-04T21:44:32.325Z,19.30
2023-04-04T21:46:59.168Z,19.30
2023-04-04T21:49:26.416Z,19.30
2023-04-04T21:51:53.286Z,19.20
2023-04-04T21:54:20.309Z,19.30
2023-04-04T21:56:47.178Z,19.20
2023-04-04T21:59:14.177Z,19.20
2023-04-04T22:01:41.271Z,19.20
2023-04-04T22:04:08.259Z,19.10
2023-04-04T22:06:35.217Z,19.20
2023-04-04T22:09:03.135Z,19.10
2023-04-04T22:11:30.117Z,19.10
2023-04-04T22:14:04.168Z,19.10
2023-04-04T22:16:32.099Z,19.10
2023-04-04T22:19:01.395Z,19.10
2023-04-04T22:21:28.589Z,19.10
2023-04-04T22:24:02.259Z,19.10
2023-04-04T22:26:32.302Z,19.10
2023-04-04T22:29:01.278Z,19.10
2023-04-04T22:31:28.698Z,19.10
2023-04-04T22:33:56.156Z,19.10
2023-04-04T22:36:25.067Z,19.10
2023-04-04T22:38:56.900Z,19.10
2023-04-04T22:41:27.438Z,19.10
2023-04-04T22:43:54.446Z,19.10
2023-04-04T22:46:21.399Z,19.00
2023-04-04T22:48:48.319Z,19.00
2023-04-04T22:51:15.701Z,19.00
2023-04-04T22:53:44.153Z,19.00
2023-04-04T22:56:11.546Z,19.00
2023-04-04T22:58:38.828Z,19.00
2023-04-04T23:01:06.387Z,19.00
2023-04-04T23:03:33.663Z,19.00
2023-04-04T23:06:00.666Z,19.00
2023-04-04T23:08:27.583Z,19.00
2023-04-04T23:10:54.399Z,19.00
2023-04-04T23:13:21.901Z,19.00
2023-04-04T23:15:49.392Z,19.00
2023-04-04T23:18:16.271Z,19.00
2023-04-04T23:20:43.698Z,19.00
2023-04-04T23:23:10.703Z,19.00
2023-04-04T23:25:37.512Z,19.00
2023-04-04T23:28:04.437Z,19.10
2023-04-04T23:30:31.420Z,19.00
2023-04-04T23:32:58.300Z,19.00
2023-04-04T23:35:25.391Z,19.00
2023-04-04T23:37:52.353Z,19.00
2023-04-04T23:40:19.295Z,19.00
2023-04-04T23:42:46.477Z,18.90
2023-04-04T23:45:14.755Z,18.90
2023-04-04T23:47:41.715Z,18.80
2023-04-04T23:50:08.959Z,18.80
2023-04-04T23:52:37.402Z,18.80
2023-04-04T23:55:04.956Z,18.80
2023-04-04T23:57:31.750Z,18.80
2023-04-04T23:59:58.591Z,18.80
